81FA weather

Johnson Ranch Heliport
Hobe Sound, Florida, United States

Public forecast

Using degrees Fahrenheit for public forecast. Weather courtesy of forecast.io.

Closest aviation weather report (METAR) to Johnson Ranch Heliport

Closest report is Witham Field, 9.3 nm (17.3 km) NNW. Retrieved 2019/10/17 21:47 UTC (25 minutes ago):

KSUA 172147Z 06007KT 7SM SCT035 28/22 A2989

Closest aviation forecast (TAF) to Johnson Ranch Heliport

Closest forecast is Witham Field, 9.3 nm (17.3 km) NNW. Retrieved 2019/10/17 18:36 UTC (4 hours ago):

TAF KSUA 171735Z 1718/1818 33006KT P6SM SCT020 BKN100 FM180000 05003KT P6SM VCSH SCT030 BKN200 FM181300 09008KT P6SM VCSH SCT040 BKN080